createdAt,value
2022-08-29T00:00:48.909Z,994.78
2022-08-29T00:01:48.918Z,994.75
2022-08-29T00:02:48.916Z,994.78
2022-08-29T00:03:48.989Z,994.76
2022-08-29T00:04:48.894Z,994.74
2022-08-29T00:05:50.207Z,994.73
2022-08-29T00:06:48.896Z,994.72
2022-08-29T00:07:48.896Z,994.72
2022-08-29T00:08:48.894Z,994.71
2022-08-29T00:09:48.866Z,994.70
2022-08-29T00:10:48.848Z,994.74
2022-08-29T00:11:48.864Z,994.75
2022-08-29T00:12:48.854Z,994.72
2022-08-29T00:13:48.831Z,994.74
2022-08-29T00:14:48.859Z,994.67
2022-08-29T00:15:48.844Z,994.68
2022-08-29T00:16:48.955Z,994.72
2022-08-29T00:17:48.811Z,994.71
2022-08-29T00:18:48.828Z,994.71
2022-08-29T00:19:48.833Z,994.71
2022-08-29T00:20:48.802Z,994.71
2022-08-29T00:21:48.778Z,994.71
2022-08-29T00:22:48.792Z,994.67
2022-08-29T00:23:48.791Z,994.66
2022-08-29T00:24:48.765Z,994.66
2022-08-29T00:25:48.876Z,994.63
2022-08-29T00:26:48.768Z,994.65
2022-08-29T00:27:49.789Z,994.69
2022-08-29T00:28:48.764Z,994.62
2022-08-29T00:29:48.760Z,994.64
2022-08-29T00:30:48.771Z,994.65
2022-08-29T00:31:48.793Z,994.68
2022-08-29T00:32:48.743Z,994.69
2022-08-29T00:33:48.726Z,994.72
2022-08-29T00:34:49.668Z,994.64
2022-08-29T00:35:48.730Z,994.72
2022-08-29T00:36:49.008Z,994.68
2022-08-29T00:37:48.724Z,994.65
2022-08-29T00:38:49.527Z,994.70
2022-08-29T00:39:48.694Z,994.73
2022-08-29T00:40:51.715Z,994.74
2022-08-29T00:41:48.698Z,994.68
2022-08-29T00:42:48.673Z,994.73
2022-08-29T00:43:48.682Z,994.64
2022-08-29T00:44:48.658Z,994.79
2022-08-29T00:45:48.722Z,994.77
2022-08-29T00:46:48.644Z,994.73
2022-08-29T00:47:48.770Z,994.77
2022-08-29T00:48:48.649Z,994.77
2022-08-29T00:49:48.650Z,994.76
2022-08-29T00:50:48.635Z,994.74
2022-08-29T00:51:48.618Z,994.83
2022-08-29T00:52:48.655Z,994.79
2022-08-29T00:53:48.624Z,994.78
2022-08-29T00:54:48.615Z,994.77
2022-08-29T00:55:50.599Z,994.82
2022-08-29T00:56:48.624Z,994.85
2022-08-29T00:57:48.594Z,994.85
2022-08-29T00:58:48.711Z,994.83
2022-08-29T00:59:48.597Z,994.81
2022-08-29T01:00:48.622Z,994.82
2022-08-29T01:01:48.571Z,994.83
2022-08-29T01:02:48.554Z,994.85
2022-08-29T01:03:48.590Z,994.85
2022-08-29T01:04:48.549Z,994.92
2022-08-29T01:05:48.526Z,994.85
2022-08-29T01:06:48.524Z,994.86
2022-08-29T01:07:48.550Z,994.95
2022-08-29T01:08:48.536Z,994.87
2022-08-29T01:09:48.645Z,994.88
2022-08-29T01:10:48.502Z,994.87
2022-08-29T01:11:48.522Z,994.94
2022-08-29T01:12:48.493Z,995.04
2022-08-29T01:13:48.503Z,994.91
2022-08-29T01:14:48.514Z,994.95
2022-08-29T01:15:48.496Z,994.94
2022-08-29T01:16:48.594Z,994.94
2022-08-29T01:17:48.490Z,994.98
2022-08-29T01:18:48.474Z,995.01
2022-08-29T01:19:48.472Z,994.97
2022-08-29T01:20:48.576Z,994.96
2022-08-29T01:21:48.448Z,994.98
2022-08-29T01:22:48.510Z,994.94
2022-08-29T01:23:48.462Z,994.98
2022-08-29T01:24:48.454Z,994.95
2022-08-29T01:25:49.108Z,994.95
2022-08-29T01:26:48.419Z,994.91
2022-08-29T01:27:48.404Z,994.98
2022-08-29T01:28:48.415Z,994.96
2022-08-29T01:29:48.406Z,994.96
2022-08-29T01:30:48.420Z,994.96
2022-08-29T01:31:57.451Z,994.93
2022-08-29T01:32:49.394Z,994.95
2022-08-29T01:33:48.400Z,994.94
2022-08-29T01:34:48.380Z,994.94
2022-08-29T01:35:48.380Z,994.94
2022-08-29T01:36:49.430Z,994.94
2022-08-29T01:37:48.365Z,994.95
2022-08-29T01:38:48.359Z,994.92
2022-08-29T01:39:48.350Z,994.98
2022-08-29T01:40:48.371Z,994.97
2022-08-29T01:41:48.353Z,994.91
2022-08-29T01:42:48.326Z,994.89
2022-08-29T01:43:48.316Z,994.90
2022-08-29T01:44:48.314Z,994.86
2022-08-29T01:45:48.408Z,994.87
2022-08-29T01:46:48.305Z,994.95
2022-08-29T01:47:48.303Z,994.91
2022-08-29T01:48:48.311Z,994.90
2022-08-29T01:49:48.307Z,994.96
2022-08-29T01:50:48.294Z,994.90
2022-08-29T01:51:48.311Z,994.91
2022-08-29T01:52:48.279Z,994.91
2022-08-29T01:53:48.282Z,994.92
2022-08-29T01:54:48.266Z,994.86
2022-08-29T01:55:48.308Z,994.91
2022-08-29T01:56:48.299Z,994.89
2022-08-29T01:57:48.248Z,994.92
2022-08-29T01:58:48.249Z,994.94
2022-08-29T01:59:48.239Z,994.99
2022-08-29T02:00:48.307Z,994.96
2022-08-29T02:01:48.238Z,994.96
2022-08-29T02:02:48.259Z,994.93
2022-08-29T02:03:48.211Z,994.96
2022-08-29T02:04:48.204Z,994.94
2022-08-29T02:05:48.201Z,994.94
2022-08-29T02:06:48.214Z,994.93
2022-08-29T02:07:48.229Z,994.91
2022-08-29T02:08:48.186Z,994.98
2022-08-29T02:09:48.192Z,994.97
2022-08-29T02:10:48.190Z,994.98
2022-08-29T02:11:48.160Z,994.97
2022-08-29T02:12:48.164Z,994.98
2022-08-29T02:13:48.165Z,995.02
2022-08-29T02:14:48.139Z,995.01
2022-08-29T02:15:48.150Z,995.01
2022-08-29T02:16:48.238Z,995.05
2022-08-29T02:17:48.568Z,994.97
2022-08-29T02:18:48.240Z,995.07
2022-08-29T02:19:48.122Z,994.99
2022-08-29T02:20:48.109Z,995.05
2022-08-29T02:21:48.145Z,995.08
2022-08-29T02:22:48.109Z,995.16
2022-08-29T02:23:48.105Z,995.06
2022-08-29T02:24:48.215Z,995.11
2022-08-29T02:25:48.101Z,995.21
2022-08-29T02:26:48.085Z,995.18
2022-08-29T02:27:48.075Z,995.19
2022-08-29T02:28:48.098Z,995.15
2022-08-29T02:29:48.107Z,995.17
2022-08-29T02:30:48.066Z,995.22
2022-08-29T02:31:48.125Z,995.22
2022-08-29T02:32:48.062Z,995.16
2022-08-29T02:33:48.045Z,995.13
2022-08-29T02:34:48.647Z,995.16
2022-08-29T02:35:48.169Z,995.19
2022-08-29T02:36:48.172Z,995.21
2022-08-29T02:37:48.016Z,995.21
2022-08-29T02:38:48.016Z,995.17
2022-08-29T02:39:47.995Z,995.17
2022-08-29T02:40:48.087Z,995.24
2022-08-29T02:41:47.984Z,995.18
2022-08-29T02:42:48.008Z,995.27
2022-08-29T02:43:47.985Z,995.28
2022-08-29T02:44:47.985Z,995.21
2022-08-29T02:45:47.964Z,995.19
2022-08-29T02:46:48.108Z,995.17
2022-08-29T02:47:47.961Z,995.18
2022-08-29T02:48:54.097Z,995.18
2022-08-29T02:49:48.940Z,995.20
2022-08-29T02:50:47.953Z,995.18
2022-08-29T02:51:47.974Z,995.20
2022-08-29T02:52:47.924Z,995.20
2022-08-29T02:53:47.915Z,995.27
2022-08-29T02:54:47.917Z,995.34
2022-08-29T02:55:47.917Z,995.25
2022-08-29T02:56:47.920Z,995.18
2022-08-29T02:57:48.011Z,995.20
2022-08-29T02:58:47.924Z,995.16
2022-08-29T02:59:47.899Z,995.17
2022-08-29T03:00:47.937Z,995.19
2022-08-29T03:01:47.964Z,995.25
2022-08-29T03:02:47.971Z,995.16
2022-08-29T03:03:47.872Z,995.18
2022-08-29T03:04:47.855Z,995.19
2022-08-29T03:05:47.861Z,995.11
2022-08-29T03:06:47.873Z,995.10
2022-08-29T03:07:50.792Z,995.12
2022-08-29T03:08:48.964Z,995.10
2022-08-29T03:09:47.826Z,995.07
2022-08-29T03:10:47.835Z,995.01
2022-08-29T03:11:47.839Z,994.97
2022-08-29T03:12:47.851Z,995.03
2022-08-29T03:13:47.793Z,994.99
2022-08-29T03:14:47.936Z,994.96
2022-08-29T03:15:47.858Z,995.01
2022-08-29T03:16:47.794Z,995.02
2022-08-29T03:17:47.785Z,994.99
2022-08-29T03:18:47.831Z,994.98
2022-08-29T03:19:47.880Z,995.04
2022-08-29T03:20:47.778Z,995.07
2022-08-29T03:21:47.782Z,995.07
2022-08-29T03:22:47.753Z,995.04
2022-08-29T03:23:47.750Z,995.04
2022-08-29T03:24:47.758Z,995.12
2022-08-29T03:25:47.778Z,995.07
2022-08-29T03:26:47.732Z,995.10
2022-08-29T03:27:48.745Z,995.06
2022-08-29T03:28:47.733Z,995.07
2022-08-29T03:29:47.721Z,994.99
2022-08-29T03:30:47.740Z,995.07
2022-08-29T03:31:47.746Z,994.97
2022-08-29T03:32:47.722Z,994.98
2022-08-29T03:33:47.693Z,995.02
2022-08-29T03:34:47.694Z,995.01
2022-08-29T03:35:47.693Z,994.97
2022-08-29T03:36:47.792Z,995.09
2022-08-29T03:37:47.685Z,995.04
2022-08-29T03:38:47.679Z,995.01
2022-08-29T03:39:47.659Z,995.07
2022-08-29T03:40:47.676Z,995.06
2022-08-29T03:41:47.685Z,995.06
2022-08-29T03:42:47.652Z,995.07
2022-08-29T03:43:47.657Z,995.15
2022-08-29T03:44:47.635Z,995.17
2022-08-29T03:45:47.631Z,995.08
2022-08-29T03:46:47.738Z,995.19
2022-08-29T03:47:47.749Z,995.19
2022-08-29T03:48:47.611Z,995.08
2022-08-29T03:49:47.639Z,995.12
2022-08-29T03:50:47.615Z,995.08
2022-08-29T03:51:47.612Z,995.13
2022-08-29T03:52:47.610Z,995.16
2022-08-29T03:53:47.574Z,995.15
2022-08-29T03:54:47.594Z,995.08
2022-08-29T03:55:47.572Z,995.10
2022-08-29T03:56:47.575Z,995.00
2022-08-29T03:57:47.589Z,995.07
2022-08-29T03:58:52.549Z,995.11
2022-08-29T03:59:47.573Z,995.08
2022-08-29T04:00:47.548Z,995.09
2022-08-29T04:01:47.572Z,995.10
2022-08-29T04:02:47.549Z,995.12
2022-08-29T04:03:47.561Z,995.08
2022-08-29T04:04:47.547Z,995.07
2022-08-29T04:05:47.515Z,995.09
2022-08-29T04:06:47.517Z,995.12
2022-08-29T04:07:47.519Z,995.21
2022-08-29T04:08:47.499Z,995.19
2022-08-29T04:09:47.523Z,995.16
2022-08-29T04:10:47.495Z,995.19
2022-08-29T04:11:47.482Z,995.24
2022-08-29T04:12:51.203Z,995.19
2022-08-29T04:13:47.507Z,995.18
2022-08-29T04:14:47.491Z,995.23
2022-08-29T04:15:47.509Z,995.20
2022-08-29T04:16:47.475Z,995.29
2022-08-29T04:17:52.738Z,995.23
2022-08-29T04:18:47.451Z,995.24
2022-08-29T04:21:56.915Z,995.33
2022-08-29T04:22:44.870Z,995.27
2022-08-29T04:23:44.844Z,995.34
2022-08-29T04:24:44.850Z,995.33
2022-08-29T04:25:44.866Z,995.39
2022-08-29T04:26:44.833Z,995.35
2022-08-29T04:27:45.004Z,995.39
2022-08-29T04:28:44.833Z,995.45
2022-08-29T04:29:44.831Z,995.48
2022-08-29T04:30:50.390Z,995.50
2022-08-29T04:31:44.868Z,995.45
2022-08-29T04:32:44.798Z,995.47
2022-08-29T04:33:44.820Z,995.47
2022-08-29T04:34:45.897Z,995.41
2022-08-29T04:35:45.897Z,995.50
2022-08-29T04:36:45.898Z,995.48
2022-08-29T04:37:45.883Z,995.46
2022-08-29T04:38:45.913Z,995.49
2022-08-29T04:39:45.875Z,995.51
2022-08-29T04:40:45.839Z,995.56
2022-08-29T04:41:45.865Z,995.56
2022-08-29T04:42:45.834Z,995.52
2022-08-29T04:43:45.839Z,995.52
2022-08-29T04:44:45.891Z,995.45
2022-08-29T04:45:45.811Z,995.47
2022-08-29T04:46:45.845Z,995.43
2022-08-29T04:47:45.800Z,995.43
2022-08-29T04:48:45.808Z,995.46
2022-08-29T04:49:45.926Z,995.49
2022-08-29T04:50:45.796Z,995.47
2022-08-29T04:51:45.797Z,995.50
2022-08-29T04:52:45.774Z,995.46
2022-08-29T04:53:45.775Z,995.48
2022-08-29T04:54:45.777Z,995.45
2022-08-29T04:55:45.777Z,995.49
2022-08-29T04:56:47.388Z,995.53
2022-08-29T04:57:45.762Z,995.48
2022-08-29T04:58:45.725Z,995.51
2022-08-29T04:59:45.729Z,995.51
2022-08-29T05:00:45.737Z,995.47
2022-08-29T05:01:45.803Z,995.52
2022-08-29T05:02:45.755Z,995.57
2022-08-29T05:03:45.708Z,995.58
2022-08-29T05:04:45.717Z,995.56
2022-08-29T05:05:45.705Z,995.61
2022-08-29T05:06:45.724Z,995.50
2022-08-29T05:07:45.691Z,995.55
2022-08-29T05:08:45.680Z,995.56
2022-08-29T05:09:45.678Z,995.57
2022-08-29T05:10:45.682Z,995.51
2022-08-29T05:11:45.690Z,995.59
2022-08-29T05:12:45.659Z,995.55
2022-08-29T05:13:45.657Z,995.57
2022-08-29T05:14:45.648Z,995.50
2022-08-29T05:15:45.672Z,995.53
2022-08-29T05:16:45.623Z,995.54
2022-08-29T05:17:45.717Z,995.51
2022-08-29T05:18:45.614Z,995.50
2022-08-29T05:19:45.622Z,995.54
2022-08-29T05:20:45.579Z,995.52
2022-08-29T05:21:45.601Z,995.58
2022-08-29T05:22:45.710Z,995.53
2022-08-29T05:23:45.591Z,995.52
2022-08-29T05:24:45.583Z,995.54
2022-08-29T05:25:45.569Z,995.51
2022-08-29T05:26:45.582Z,995.56
2022-08-29T05:27:45.553Z,995.52
2022-08-29T05:28:45.571Z,995.48
2022-08-29T05:29:45.533Z,995.50
2022-08-29T05:30:45.584Z,995.45
2022-08-29T05:31:45.872Z,995.48
2022-08-29T05:32:45.545Z,995.49
2022-08-29T05:33:45.629Z,995.46
2022-08-29T05:34:45.506Z,995.46
2022-08-29T05:35:45.522Z,995.49
2022-08-29T05:36:45.507Z,995.50
2022-08-29T05:37:46.499Z,995.51
2022-08-29T05:38:45.491Z,995.56
2022-08-29T05:39:45.594Z,995.58
2022-08-29T05:40:45.490Z,995.49
2022-08-29T05:41:45.475Z,995.46
2022-08-29T05:42:45.479Z,995.52
2022-08-29T05:43:45.473Z,995.55
2022-08-29T05:44:45.557Z,995.52
2022-08-29T05:45:45.473Z,995.60
2022-08-29T05:46:45.529Z,995.58
2022-08-29T05:47:49.916Z,995.59
2022-08-29T05:48:45.441Z,995.59
2022-08-29T05:49:45.429Z,995.59
2022-08-29T05:50:45.452Z,995.54
2022-08-29T05:51:45.419Z,995.48
2022-08-29T05:52:45.401Z,995.52
2022-08-29T05:53:45.417Z,995.55
2022-08-29T05:54:45.414Z,995.48
2022-08-29T05:55:45.434Z,995.47
2022-08-29T05:56:45.392Z,995.47
2022-08-29T05:57:45.376Z,995.46
2022-08-29T05:58:45.392Z,995.51
2022-08-29T05:59:45.400Z,995.54
2022-08-29T06:00:45.377Z,995.59
2022-08-29T06:01:45.462Z,995.54
2022-08-29T06:02:45.487Z,995.51
2022-08-29T06:03:46.152Z,995.57
2022-08-29T06:04:47.014Z,995.59
2022-08-29T06:05:45.345Z,995.63
2022-08-29T06:06:45.433Z,995.62
2022-08-29T06:07:45.337Z,995.59
2022-08-29T06:08:45.329Z,995.61
2022-08-29T06:09:45.337Z,995.56
2022-08-29T06:10:45.318Z,995.56
2022-08-29T06:11:46.343Z,995.55
2022-08-29T06:12:45.314Z,995.56
2022-08-29T06:13:45.914Z,995.57
2022-08-29T06:14:50.090Z,995.60
2022-08-29T06:15:45.356Z,995.55
2022-08-29T06:16:45.274Z,995.58
2022-08-29T06:17:45.375Z,995.59
2022-08-29T06:18:45.256Z,995.57
2022-08-29T06:19:45.264Z,995.56
2022-08-29T06:20:45.253Z,995.56
2022-08-29T06:21:45.292Z,995.57
2022-08-29T06:22:45.348Z,995.59
2022-08-29T06:23:45.244Z,995.58
2022-08-29T06:24:45.909Z,995.58
2022-08-29T06:25:45.226Z,995.57
2022-08-29T06:26:45.241Z,995.58
2022-08-29T06:27:45.219Z,995.64
2022-08-29T06:28:45.332Z,995.56
2022-08-29T06:29:45.198Z,995.54
2022-08-29T06:30:45.278Z,995.60
2022-08-29T06:31:45.201Z,995.56
2022-08-29T06:32:45.180Z,995.66
2022-08-29T06:33:45.289Z,995.70
2022-08-29T06:34:45.160Z,995.68
2022-08-29T06:35:46.174Z,995.70
2022-08-29T06:36:45.157Z,995.67
2022-08-29T06:37:45.193Z,995.71
2022-08-29T06:38:45.134Z,995.68
2022-08-29T06:39:45.256Z,995.64
2022-08-29T06:40:45.200Z,995.66
2022-08-29T06:41:45.123Z,995.65
2022-08-29T06:42:45.112Z,995.70
2022-08-29T06:43:46.102Z,995.64
2022-08-29T06:44:45.217Z,995.65
2022-08-29T06:45:45.090Z,995.57
2022-08-29T06:46:45.092Z,995.56
2022-08-29T06:47:45.080Z,995.63
2022-08-29T06:48:45.090Z,995.61
2022-08-29T06:49:45.078Z,995.60
2022-08-29T06:50:46.021Z,995.59
2022-08-29T06:51:45.061Z,995.64
2022-08-29T06:52:47.023Z,995.63
2022-08-29T06:53:45.038Z,995.68
2022-08-29T06:54:45.046Z,995.70
2022-08-29T06:55:45.070Z,995.81
2022-08-29T06:56:45.013Z,995.76
2022-08-29T06:57:45.049Z,995.71
2022-08-29T06:58:45.010Z,995.71
2022-08-29T06:59:45.017Z,995.71
2022-08-29T07:00:49.041Z,995.64
2022-08-29T07:01:45.156Z,995.71
2022-08-29T07:02:45.057Z,995.71
2022-08-29T07:03:45.001Z,995.70
2022-08-29T07:04:44.974Z,995.65
2022-08-29T07:05:44.992Z,995.69
2022-08-29T07:06:45.107Z,995.70
2022-08-29T07:07:45.002Z,995.73
2022-08-29T07:08:54.948Z,995.66
2022-08-29T07:09:44.965Z,995.71
2022-08-29T07:10:44.980Z,995.72
2022-08-29T07:11:44.935Z,995.67
2022-08-29T07:12:44.974Z,995.71
2022-08-29T07:13:44.931Z,995.77
2022-08-29T07:14:44.931Z,995.70
2022-08-29T07:15:44.941Z,995.73
2022-08-29T07:16:44.928Z,995.75
2022-08-29T07:17:44.952Z,995.75
2022-08-29T07:18:44.908Z,995.74
2022-08-29T07:19:44.897Z,995.79
2022-08-29T07:20:44.917Z,995.79
2022-08-29T07:21:45.427Z,995.77
2022-08-29T07:22:44.892Z,995.79
2022-08-29T07:23:44.918Z,995.84
2022-08-29T07:24:44.873Z,995.81
2022-08-29T07:25:44.864Z,995.74
2022-08-29T07:26:44.864Z,995.74
2022-08-29T07:27:44.870Z,995.73
2022-08-29T07:28:46.187Z,995.65
2022-08-29T07:29:47.656Z,995.75
2022-08-29T07:30:46.896Z,995.66
2022-08-29T07:31:44.827Z,995.66
2022-08-29T07:32:44.832Z,995.61
2022-08-29T07:33:44.843Z,995.68
2022-08-29T07:34:44.935Z,995.69
2022-08-29T07:35:44.821Z,995.61
2022-08-29T07:36:44.816Z,995.66
2022-08-29T07:37:47.782Z,995.64
2022-08-29T07:38:45.808Z,995.61
2022-08-29T07:39:44.910Z,995.59
2022-08-29T07:40:44.833Z,995.62
2022-08-29T07:41:44.778Z,995.63
2022-08-29T07:42:44.784Z,995.61
2022-08-29T07:43:44.771Z,995.65
2022-08-29T07:44:44.753Z,995.61
2022-08-29T07:45:44.893Z,995.71
2022-08-29T07:46:44.759Z,995.58
2022-08-29T07:47:44.735Z,995.64
2022-08-29T07:48:44.741Z,995.59
2022-08-29T07:49:44.744Z,995.64
2022-08-29T07:50:44.747Z,995.59
2022-08-29T07:51:44.917Z,995.56
2022-08-29T07:52:44.732Z,995.63
2022-08-29T07:53:44.719Z,995.70
2022-08-29T07:54:44.707Z,995.61
2022-08-29T07:55:44.703Z,995.60
2022-08-29T07:56:44.793Z,995.65
2022-08-29T07:57:44.691Z,995.65
2022-08-29T07:58:44.704Z,995.68
2022-08-29T07:59:44.666Z,995.70
2022-08-29T08:00:44.674Z,995.71
2022-08-29T08:01:44.780Z,995.71
2022-08-29T08:02:44.726Z,995.62
2022-08-29T08:03:44.656Z,995.73
2022-08-29T08:04:44.672Z,995.67
2022-08-29T08:05:44.664Z,995.66
2022-08-29T08:06:44.655Z,995.58
2022-08-29T08:07:44.673Z,995.69
2022-08-29T08:08:44.641Z,995.71
2022-08-29T08:09:44.631Z,995.68
2022-08-29T08:10:47.836Z,995.72
2022-08-29T08:11:44.649Z,995.70
2022-08-29T08:12:44.722Z,995.79
2022-08-29T08:13:44.607Z,995.71
2022-08-29T08:14:44.604Z,995.77
2022-08-29T08:15:44.613Z,995.78
2022-08-29T08:16:44.932Z,995.76
2022-08-29T08:17:44.567Z,995.70
2022-08-29T08:18:44.718Z,995.75
2022-08-29T08:19:44.575Z,995.75
2022-08-29T08:20:44.575Z,995.74
2022-08-29T08:21:49.963Z,995.75
2022-08-29T08:22:44.555Z,995.69
2022-08-29T08:23:44.671Z,995.75
2022-08-29T08:24:44.538Z,995.65
2022-08-29T08:25:44.545Z,995.65
2022-08-29T08:26:45.448Z,995.71
2022-08-29T08:27:44.520Z,995.77
2022-08-29T08:28:44.579Z,995.68
2022-08-29T08:29:44.564Z,995.71
2022-08-29T08:30:44.531Z,995.71
2022-08-29T08:31:44.512Z,995.71
2022-08-29T08:32:47.423Z,995.65
2022-08-29T08:33:45.565Z,995.65
2022-08-29T08:34:44.596Z,995.59
2022-08-29T08:35:46.838Z,995.62
2022-08-29T08:36:44.487Z,995.67
2022-08-29T08:37:44.483Z,995.63
2022-08-29T08:38:44.478Z,995.58
2022-08-29T08:39:44.457Z,995.67
2022-08-29T08:40:44.539Z,995.62
2022-08-29T08:41:44.474Z,995.61
2022-08-29T08:42:44.461Z,995.55
2022-08-29T08:43:44.470Z,995.62
2022-08-29T08:44:44.466Z,995.62
2022-08-29T08:45:44.564Z,995.70
2022-08-29T08:46:44.562Z,995.52
2022-08-29T08:47:45.100Z,995.57
2022-08-29T08:48:44.450Z,995.53
2022-08-29T08:49:44.426Z,995.57
2022-08-29T08:50:44.453Z,995.54
2022-08-29T08:51:44.633Z,995.56
2022-08-29T08:52:44.419Z,995.57
2022-08-29T08:53:44.394Z,995.62
2022-08-29T08:54:44.395Z,995.58
2022-08-29T08:55:44.387Z,995.54
2022-08-29T08:56:44.522Z,995.68
2022-08-29T08:57:44.459Z,995.64
2022-08-29T08:58:44.363Z,995.62
2022-08-29T08:59:45.410Z,995.61
2022-08-29T09:00:44.366Z,995.61
2022-08-29T09:01:44.460Z,995.58
2022-08-29T09:02:44.566Z,995.58
2022-08-29T09:03:44.359Z,995.54
2022-08-29T09:04:44.336Z,995.58
2022-08-29T09:05:48.973Z,995.65
2022-08-29T09:06:45.329Z,995.65
2022-08-29T09:07:44.435Z,995.68
2022-08-29T09:08:44.303Z,995.64
2022-08-29T09:09:44.343Z,995.58
2022-08-29T09:10:44.323Z,995.63
2022-08-29T09:11:44.318Z,995.55
2022-08-29T09:12:44.302Z,995.59
2022-08-29T09:13:44.327Z,995.66
2022-08-29T09:14:44.287Z,995.62
2022-08-29T09:15:44.289Z,995.58
2022-08-29T09:16:44.374Z,995.58
2022-08-29T09:17:44.274Z,995.57
2022-08-29T09:18:44.312Z,995.51
2022-08-29T09:19:45.255Z,995.43
2022-08-29T09:20:44.352Z,995.55
2022-08-29T09:21:44.240Z,995.55
2022-08-29T09:22:44.239Z,995.55
2022-08-29T09:23:44.391Z,995.48
2022-08-29T09:24:44.385Z,995.53
2022-08-29T09:25:44.238Z,995.49
2022-08-29T09:26:44.229Z,995.56
2022-08-29T09:27:44.916Z,995.56
2022-08-29T09:28:44.213Z,995.53
2022-08-29T09:29:44.305Z,995.52
2022-08-29T09:30:44.273Z,995.49
2022-08-29T09:31:44.320Z,995.52
2022-08-29T09:32:44.189Z,995.58
2022-08-29T09:33:44.182Z,995.58
2022-08-29T09:35:07.989Z,995.57
2022-08-29T09:35:46.318Z,995.56
2022-08-29T09:36:46.054Z,995.61
2022-08-29T09:37:44.160Z,995.56
2022-08-29T09:38:44.150Z,995.59
2022-08-29T09:39:46.020Z,995.59
2022-08-29T09:40:44.230Z,995.56
2022-08-29T09:41:44.242Z,995.57
2022-08-29T09:42:44.120Z,995.56
2022-08-29T09:43:44.119Z,995.56
2022-08-29T09:44:44.927Z,995.56
2022-08-29T09:45:44.156Z,995.55
2022-08-29T09:46:44.202Z,995.54
2022-08-29T09:47:44.120Z,995.56
2022-08-29T09:48:44.088Z,995.58
2022-08-29T09:49:44.087Z,995.60
2022-08-29T09:50:44.098Z,995.57
2022-08-29T09:51:44.077Z,995.57
2022-08-29T09:52:44.117Z,995.53
2022-08-29T09:53:44.053Z,995.58
2022-08-29T09:54:44.065Z,995.56
2022-08-29T09:55:45.293Z,995.52
2022-08-29T09:56:47.996Z,995.61
2022-08-29T09:57:44.077Z,995.63
2022-08-29T09:58:44.044Z,995.63
2022-08-29T09:59:45.266Z,995.54
2022-08-29T10:00:44.124Z,995.55
2022-08-29T10:01:44.061Z,995.56
2022-08-29T10:02:44.174Z,995.50
2022-08-29T10:03:44.031Z,995.49
2022-08-29T10:04:44.039Z,995.45
2022-08-29T10:05:44.009Z,995.43
2022-08-29T10:06:48.408Z,995.38
2022-08-29T10:07:46.070Z,995.43
2022-08-29T10:08:44.103Z,995.45
2022-08-29T10:09:43.978Z,995.42
2022-08-29T10:10:43.980Z,995.44
2022-08-29T10:11:43.975Z,995.48
2022-08-29T10:12:43.969Z,995.47
2022-08-29T10:13:43.955Z,995.49
2022-08-29T10:14:50.329Z,995.45
2022-08-29T10:15:51.038Z,995.38
2022-08-29T10:16:46.007Z,995.43
2022-08-29T10:17:43.944Z,995.43
2022-08-29T10:18:43.921Z,995.41
2022-08-29T10:19:43.944Z,995.38
2022-08-29T10:20:43.905Z,995.38
2022-08-29T10:21:43.919Z,995.37
2022-08-29T10:22:43.909Z,995.35
2022-08-29T10:23:43.898Z,995.37
2022-08-29T10:24:43.898Z,995.48
2022-08-29T10:25:43.925Z,995.43
2022-08-29T10:26:43.912Z,995.38
2022-08-29T10:27:43.879Z,995.45
2022-08-29T10:28:43.864Z,995.44
2022-08-29T10:29:43.899Z,995.46
2022-08-29T10:30:43.988Z,995.43
2022-08-29T10:31:43.987Z,995.48
2022-08-29T10:32:43.853Z,995.38
2022-08-29T10:33:43.835Z,995.39
2022-08-29T10:34:43.848Z,995.36
2022-08-29T10:36:15.898Z,995.31
2022-08-29T10:36:43.841Z,995.33
2022-08-29T10:37:43.829Z,995.46
2022-08-29T10:38:43.826Z,995.42
2022-08-29T10:39:43.822Z,995.45
2022-08-29T10:40:43.941Z,995.47
2022-08-29T10:41:48.313Z,995.46
2022-08-29T10:42:44.803Z,995.44
2022-08-29T10:43:43.782Z,995.49
2022-08-29T10:44:43.791Z,995.48
2022-08-29T10:45:43.876Z,995.49
2022-08-29T10:46:43.805Z,995.49
2022-08-29T10:47:43.779Z,995.41
2022-08-29T10:48:43.787Z,995.42
2022-08-29T10:49:44.972Z,995.48
2022-08-29T10:50:45.316Z,995.47
2022-08-29T10:51:44.779Z,995.41
2022-08-29T10:52:43.756Z,995.41
2022-08-29T10:53:43.742Z,995.41
2022-08-29T10:54:43.743Z,995.47
2022-08-29T10:55:43.724Z,995.47
2022-08-29T10:56:43.742Z,995.42
2022-08-29T10:57:43.829Z,995.34
2022-08-29T10:58:43.717Z,995.39
2022-08-29T10:59:43.704Z,995.38
2022-08-29T11:00:43.731Z,995.35
2022-08-29T11:01:44.769Z,995.39
2022-08-29T11:02:43.797Z,995.38
2022-08-29T11:03:43.702Z,995.33
2022-08-29T11:04:43.682Z,995.31
2022-08-29T11:05:43.690Z,995.35
2022-08-29T11:06:43.691Z,995.37
2022-08-29T11:07:43.674Z,995.40
2022-08-29T11:08:43.684Z,995.38
2022-08-29T11:09:43.660Z,995.31
2022-08-29T11:10:43.639Z,995.35
2022-08-29T11:11:43.658Z,995.35
2022-08-29T11:12:43.651Z,995.34
2022-08-29T11:13:43.652Z,995.38
2022-08-29T11:14:43.631Z,995.29
2022-08-29T11:15:43.613Z,995.26
2022-08-29T11:16:43.650Z,995.32
2022-08-29T11:17:43.618Z,995.29
2022-08-29T11:18:43.614Z,995.26
2022-08-29T11:19:43.619Z,995.23
2022-08-29T11:20:43.604Z,995.26
2022-08-29T11:21:43.595Z,995.23
2022-08-29T11:22:43.569Z,995.22
2022-08-29T11:23:43.583Z,995.21
2022-08-29T11:24:47.029Z,995.23
2022-08-29T11:25:44.566Z,995.26
2022-08-29T11:26:43.572Z,995.18
2022-08-29T11:27:43.562Z,995.17
2022-08-29T11:29:43.558Z,995.20
2022-08-29T11:30:46.080Z,995.17
2022-08-29T11:31:43.612Z,995.11
2022-08-29T11:32:43.524Z,995.08
2022-08-29T11:33:43.529Z,995.06
2022-08-29T11:34:43.510Z,995.03
2022-08-29T11:35:43.638Z,995.02
2022-08-29T11:36:43.519Z,995.07
2022-08-29T11:37:43.485Z,995.07
2022-08-29T11:38:43.498Z,994.98
2022-08-29T11:39:43.495Z,995.09
2022-08-29T11:41:44.654Z,995.03
2022-08-29T11:42:51.011Z,994.99
2022-08-29T11:43:45.471Z,995.02
2022-08-29T11:44:43.457Z,995.03
2022-08-29T11:45:43.448Z,994.95
2022-08-29T11:46:43.522Z,994.99
2022-08-29T11:47:43.578Z,995.06
2022-08-29T11:48:43.438Z,995.07
2022-08-29T11:49:43.451Z,995.11
2022-08-29T11:50:43.464Z,995.08
2022-08-29T11:51:43.420Z,995.11
2022-08-29T11:52:43.537Z,995.08
2022-08-29T11:53:43.398Z,995.07
2022-08-29T11:54:43.401Z,995.11
2022-08-29T11:55:43.406Z,995.05
2022-08-29T11:56:43.404Z,995.01
2022-08-29T11:57:43.389Z,995.04
2022-08-29T11:58:43.482Z,995.03
2022-08-29T11:59:43.373Z,994.94
2022-08-29T12:00:43.382Z,994.96
2022-08-29T12:01:43.400Z,994.96
2022-08-29T12:02:48.294Z,994.89
2022-08-29T12:03:44.450Z,994.81
2022-08-29T12:04:43.364Z,994.85
2022-08-29T12:05:43.329Z,994.89
2022-08-29T12:06:43.317Z,994.89
2022-08-29T12:07:43.339Z,994.91
2022-08-29T12:08:43.322Z,994.90
2022-08-29T12:09:43.344Z,994.92
2022-08-29T12:10:43.305Z,994.89
2022-08-29T12:11:43.315Z,994.87
2022-08-29T12:12:43.310Z,994.86
2022-08-29T12:13:43.292Z,994.86
2022-08-29T12:14:43.390Z,994.91
2022-08-29T12:15:43.281Z,994.81
2022-08-29T12:16:43.360Z,994.85
2022-08-29T12:18:00.991Z,994.91
2022-08-29T12:18:45.283Z,994.86
2022-08-29T12:19:43.269Z,994.82
2022-08-29T12:20:43.308Z,994.87
2022-08-29T12:21:43.252Z,994.91
2022-08-29T12:23:43.234Z,994.83
2022-08-29T12:24:43.243Z,994.78
2022-08-29T12:25:43.367Z,994.76
2022-08-29T12:26:43.210Z,994.78
2022-08-29T12:27:43.224Z,994.82
2022-08-29T12:28:43.211Z,994.79
2022-08-29T12:29:44.727Z,994.77
2022-08-29T12:30:43.209Z,994.73
2022-08-29T12:31:56.376Z,994.77
2022-08-29T12:32:45.211Z,994.67
2022-08-29T12:33:43.192Z,994.69